Time;durP1;ratioP1;P1;durP2;ratioP2;P2;SDS_P1;SDS_P2;PMS_P1;PMS_P2;Temp;Humidity;BMP_temperature;BMP_pressure;BME280_temperature;BME280_humidity;BME280_pressure;Samples;Min_cycle;Max_cycle;Signal;HPM_P1;HPM_P2
2021/06/02 00:00:16;;;;;;;1.60;1.27;;;;;;;15.45;72.61;101196.28;4974154;28;20093;-71
2021/06/02 00:02:46;;;;;;;1.55;1.13;;;;;;;15.57;71.60;101185.13;4965767;28;20089;-71
2021/06/02 00:05:13;;;;;;;1.20;1.03;;;;;;;15.64;70.86;101181.72;4980912;28;20086;-71
2021/06/02 00:07:42;;;;;;;1.05;0.95;;;;;;;15.60;71.02;101181.66;4974897;28;21126;-71
2021/06/02 00:10:10;;;;;;;1.00;0.95;;;;;;;15.37;72.95;101184.53;4972105;28;20038;-71
2021/06/02 00:12:36;;;;;;;4.70;1.15;;;;;;;15.26;72.98;101199.16;4954472;28;20041;-71
2021/06/02 00:15:05;;;;;;;1.13;1.00;;;;;;;15.42;72.90;101196.25;4967523;28;20035;-71
2021/06/02 00:17:30;;;;;;;1.58;1.10;;;;;;;15.21;72.85;101188.66;4970549;28;20538;-71
2021/06/02 00:19:56;;;;;;;4.50;1.05;;;;;;;15.25;73.27;101190.22;4948272;28;20031;-72
2021/06/02 00:22:22;;;;;;;2.65;1.08;;;;;;;15.15;74.27;101188.22;4969712;28;20066;-71
2021/06/02 00:24:47;;;;;;;1.15;1.05;;;;;;;15.37;72.92;101183.75;4960901;28;20074;-71
2021/06/02 00:27:13;;;;;;;4.53;1.23;;;;;;;15.18;73.74;101192.09;4968447;28;20039;-71
2021/06/02 00:29:46;;;;;;;2.42;0.98;;;;;;;15.30;73.28;101183.69;4972175;28;20034;-71
2021/06/02 00:32:14;;;;;;;2.80;1.00;;;;;;;15.18;74.14;101183.94;4978153;28;20038;-71
2021/06/02 00:34:39;;;;;;;2.97;1.00;;;;;;;15.18;74.35;101186.66;4970070;28;20065;-71
2021/06/02 00:37:07;;;;;;;1.52;1.05;;;;;;;15.35;73.43;101192.28;4971959;28;20070;-71
2021/06/02 00:39:34;;;;;;;2.63;0.90;;;;;;;15.52;72.36;101190.91;4971341;28;20034;-71
2021/06/02 00:42:00;;;;;;;1.38;0.90;;;;;;;15.43;73.22;101189.66;4948824;28;20077;-71
2021/06/02 00:44:25;;;;;;;1.67;1.13;;;;;;;15.12;74.31;101180.81;4972195;28;20058;-71
2021/06/02 00:46:51;;;;;;;2.90;1.00;;;;;;;15.15;74.91;101187.41;4958434;28;20046;-71
2021/06/02 00:49:24;;;;;;;1.10;0.90;;;;;;;15.22;74.17;101190.97;4965643;28;21077;-71
2021/06/02 00:51:57;;;;;;;1.77;0.90;;;;;;;15.13;75.48;101182.38;4974556;28;20043;-71
2021/06/02 00:54:26;;;;;;;1.70;1.00;;;;;;;15.28;74.65;101186.00;4972845;28;20030;-71
2021/06/02 00:56:53;;;;;;;2.35;0.90;;;;;;;15.02;75.32;101180.69;4968494;28;20392;-70
2021/06/02 00:59:28;;;;;;;0.90;0.90;;;;;;;15.14;75.08;101186.63;4975949;28;20047;-71
2021/06/02 01:01:54;;;;;;;1.17;0.90;;;;;;;15.26;74.72;101189.09;4973594;28;20034;-71
2021/06/02 01:04:24;;;;;;;1.90;1.00;;;;;;;15.20;75.06;101190.56;4963698;28;20062;-71
2021/06/02 01:06:51;;;;;;;1.67;1.00;;;;;;;15.21;75.08;101189.41;4970474;28;20043;-71
2021/06/02 01:09:17;;;;;;;1.10;0.98;;;;;;;15.06;75.95;101200.50;4971127;28;20038;-71
2021/06/02 01:11:43;;;;;;;1.65;0.88;;;;;;;15.16;75.34;101188.97;4967947;28;20380;-70
2021/06/02 01:14:09;;;;;;;1.88;0.70;;;;;;;15.18;75.85;101186.66;4972397;28;20045;-71
2021/06/02 01:16:35;;;;;;;1.98;1.17;;;;;;;15.06;76.64;101193.13;4969201;28;20032;-70
2021/06/02 01:19:02;;;;;;;1.90;1.00;;;;;;;15.17;76.15;101195.97;4965935;28;20026;-71
2021/06/02 01:21:29;;;;;;;2.72;1.20;;;;;;;15.17;76.10;101190.53;4970182;28;20034;-71
2021/06/02 01:23:59;;;;;;;1.45;0.95;;;;;;;15.14;76.15;101192.06;4961348;28;20361;-70
2021/06/02 01:26:29;;;;;;;1.38;1.00;;;;;;;14.99;77.84;101181.44;4966269;28;20365;-70
2021/06/02 01:28:55;;;;;;;2.65;0.98;;;;;;;15.11;76.97;101184.69;4968450;28;20043;-71
2021/06/02 01:31:44;;;;;;;2.13;1.23;;;;;;;15.09;76.65;101188.91;4971242;28;20058;-71
2021/06/02 01:34:58;;;;;;;2.90;0.90;;;;;;;14.90;78.39;101189.88;4965598;28;20043;-71
2021/06/02 01:37:50;;;;;;;2.58;0.90;;;;;;;14.67;79.44;101185.72;4967200;28;20026;-71
2021/06/02 01:40:23;;;;;;;;;;;;;;;14.77;79.41;101193.19;4955441;28;20031;-71
2021/06/02 01:43:18;;;;;;;1.52;1.08;;;;;;;14.59;80.43;101184.84;4970748;28;20012;-71
2021/06/02 01:45:52;;;;;;;1.67;0.95;;;;;;;14.68;79.39;101189.97;4952291;28;20043;-71
2021/06/02 01:48:36;;;;;;;1.80;1.15;;;;;;;14.80;79.06;101182.38;4966452;28;20499;-71
2021/06/02 01:51:14;;;;;;;2.22;1.00;;;;;;;14.59;80.64;101187.56;4967883;28;20042;-71
2021/06/02 01:54:04;;;;;;;2.75;1.02;;;;;;;14.73;79.70;101193.13;4971057;28;20033;-71
2021/06/02 01:57:08;;;;;;;1.50;1.00;;;;;;;14.76;79.53;101187.00;4970627;28;20046;-71
2021/06/02 02:00:04;;;;;;;1.75;0.88;;;;;;;14.91;78.93;101185.22;4944665;28;20074;-71
2021/06/02 02:02:48;;;;;;;3.33;0.90;;;;;;;14.67;78.96;101186.50;4964420;28;20122;-71
2021/06/02 02:05:40;;;;;;;1.17;0.98;;;;;;;14.60;80.92;101188.31;4970403;28;20031;-71
2021/06/02 02:08:08;;;;;;;2.78;1.20;;;;;;;14.54;80.99;101192.53;4967511;28;20043;-71
2021/06/02 02:10:40;;;;;;;1.63;1.05;;;;;;;14.60;81.07;101185.59;4963121;28;20035;-71
2021/06/02 02:13:45;;;;;;;1.08;0.90;;;;;;;14.45;82.25;101192.78;4967959;28;20480;-71
2021/06/02 02:16:36;;;;;;;2.90;0.90;;;;;;;14.38;82.31;101196.16;4938116;28;20636;-71
2021/06/02 02:19:26;;;;;;;1.77;1.10;;;;;;;14.39;82.05;101184.19;4964563;28;20272;-71
2021/06/02 02:22:19;;;;;;;1.58;1.10;;;;;;;14.67;81.19;101183.00;4962363;28;20098;-71
2021/06/02 02:25:00;;;;;;;1.23;1.08;;;;;;;14.58;81.21;101185.19;4968851;28;20027;-72
2021/06/02 02:27:41;;;;;;;3.80;1.17;;;;;;;14.62;81.00;101186.03;4964853;28;20463;-72
2021/06/02 02:30:35;;;;;;;1.75;1.00;;;;;;;14.53;81.16;101188.25;4968236;28;20039;-72
2021/06/02 02:33:23;;;;;;;2.05;1.20;;;;;;;14.52;81.59;101183.97;4936583;28;20696;-72
2021/06/02 02:36:05;;;;;;;1.38;1.00;;;;;;;14.59;80.68;101192.97;4961428;28;20038;-72
2021/06/02 02:38:37;;;;;;;1.45;1.02;;;;;;;14.54;81.23;101193.28;4963721;28;20498;-72
2021/06/02 02:41:02;;;;;;;;;;;;;;;14.43;81.92;101195.09;4958209;28;20043;-72
2021/06/02 02:43:37;;;;;;;6.47;1.35;;;;;;;14.55;80.75;101191.38;4969615;28;19921;-72
2021/06/02 02:46:15;;;;;;;4.85;1.27;;;;;;;14.51;80.78;101195.94;4965691;28;20093;-72
2021/06/02 02:49:15;;;;;;;5.75;1.30;;;;;;;14.41;81.63;101198.16;4969551;28;20042;-72
2021/06/02 02:51:52;;;;;;;5.45;2.25;;;;;;;14.37;81.63;101191.91;4962933;28;20042;-71
2021/06/02 02:54:54;;;;;;;2.78;1.30;;;;;;;14.28;82.18;101209.59;4970317;28;20134;-72
2021/06/02 02:57:37;;;;;;;2.20;1.20;;;;;;;14.22;82.64;101200.97;4959466;28;20053;-72
2021/06/02 03:00:19;;;;;;;1.92;1.20;;;;;;;14.15;82.85;101206.25;4968463;28;20129;-72
2021/06/02 03:02:57;;;;;;;1.67;1.38;;;;;;;14.19;82.34;101207.09;4969230;28;20086;-72
2021/06/02 03:05:28;;;;;;;1.95;1.30;;;;;;;14.18;82.57;101202.06;4967293;28;20492;-72
2021/06/02 03:08:08;;;;;;;1.40;1.15;;;;;;;14.15;82.84;101208.97;4972326;28;20049;-72
2021/06/02 03:10:40;;;;;;;1.60;1.38;;;;;;;14.02;83.41;101212.25;4965503;28;20042;-72
2021/06/02 03:13:12;;;;;;;;;;;;;;;14.17;83.17;101203.97;4974405;28;20034;-72
2021/06/02 03:15:44;;;;;;;4.45;1.20;;;;;;;14.22;82.22;101206.38;4962101;28;19921;-72
2021/06/02 03:18:22;;;;;;;1.60;1.25;;;;;;;14.21;82.59;101210.22;4966970;28;20038;-71
2021/06/02 03:21:05;;;;;;;2.65;1.27;;;;;;;14.10;83.53;101214.72;4967617;28;20030;-72
2021/06/02 03:24:01;;;;;;;2.45;1.45;;;;;;;14.13;83.71;101207.78;4964291;28;20026;-71
2021/06/02 03:26:30;;;;;;;1.70;1.30;;;;;;;13.93;100.00;72078.50;4967590;28;20161;-72
2021/06/02 03:29:02;;;;;;;2.28;1.20;;;;;;;13.93;84.27;101212.53;4966430;28;20122;-71
2021/06/02 03:31:44;;;;;;;1.33;1.23;;;;;;;14.07;83.87;101220.84;4972086;28;20479;-71
2021/06/02 03:34:58;;;;;;;6.05;2.30;;;;;;;14.31;82.17;101215.06;4972807;28;20035;-70
2021/06/02 03:38:12;;;;;;;2.17;1.30;;;;;;;14.33;82.12;101212.75;4976126;28;20027;-70
2021/06/02 03:40:44;;;;;;;2.83;1.40;;;;;;;14.28;82.41;101204.16;4962083;28;20061;-70
2021/06/02 03:43:22;;;;;;;1.48;1.30;;;;;;;14.15;82.55;101217.09;4986453;28;20111;-70
2021/06/02 03:46:22;;;;;;;1.83;1.35;;;;;;;14.14;82.42;101212.84;4977774;28;20049;-70
2021/06/02 03:49:25;;;;;;;4.32;1.70;;;;;;;14.32;81.80;101221.25;4981349;28;20085;-70
2021/06/02 03:52:02;;;;;;;1.85;1.35;;;;;;;14.38;81.30;101220.56;4963876;28;20084;-70
2021/06/02 03:54:53;;;;;;;3.22;1.50;;;;;;;14.37;81.48;101218.22;4951160;28;20062;-70
2021/06/02 03:57:33;;;;;;;2.95;1.70;;;;;;;14.47;81.79;101220.31;4973822;28;20034;-70
2021/06/02 04:00:14;;;;;;;3.17;1.95;;;;;;;14.54;81.49;101217.69;4964697;28;20393;-70
2021/06/02 04:02:43;;;;;;;3.20;1.77;;;;;;;14.56;81.04;101220.03;4968646;28;20054;-70
2021/06/02 04:05:17;;;;;;;3.70;1.60;;;;;;;14.58;81.37;101223.13;4970312;28;20082;-70
2021/06/02 04:07:52;;;;;;;3.67;1.90;;;;;;;14.57;81.74;101224.31;4969371;28;20046;-70
2021/06/02 04:10:45;;;;;;;4.28;1.85;;;;;;;14.63;81.04;101223.63;4969307;28;20038;-70
2021/06/02 04:13:30;;;;;;;2.78;1.65;;;;;;;14.64;81.79;101227.09;4972990;28;20149;-70
2021/06/02 04:16:09;;;;;;;3.97;1.92;;;;;;;14.60;81.85;101235.19;4983941;28;20069;-70
2021/06/02 04:18:36;;;;;;;3.90;1.58;;;;;;;14.73;81.44;101222.19;4970320;28;20487;-70
2021/06/02 04:21:03;;;;;;;4.18;2.10;;;;;;;14.64;81.80;101238.72;4979625;28;20034;-70
2021/06/02 04:23:30;;;;;;;2.13;1.63;;;;;;;14.53;82.50;101235.09;4969259;28;20039;-70
2021/06/02 04:25:59;;;;;;;3.10;1.58;;;;;;;14.61;82.42;101231.34;4975113;28;20403;-70
2021/06/02 04:28:27;;;;;;;2.53;1.80;;;;;;;14.60;82.02;101237.13;4963891;28;20097;-70
2021/06/02 04:31:01;;;;;;;6.00;1.92;;;;;;;14.68;82.34;101227.94;4966964;28;20035;-70
2021/06/02 04:33:32;;;;;;;4.25;1.90;;;;;;;14.74;82.61;101232.66;4977353;28;20035;-69
2021/06/02 04:35:58;;;;;;;4.90;1.90;;;;;;;14.68;83.15;101236.06;4977735;28;20034;-70
2021/06/02 04:38:24;;;;;;;3.60;2.10;;;;;;;14.77;82.79;101233.88;4972065;28;20037;-70
2021/06/02 04:40:51;;;;;;;5.10;2.13;;;;;;;14.78;82.88;101240.84;4971388;28;20078;-70
2021/06/02 04:43:22;;;;;;;4.00;1.77;;;;;;;14.84;83.06;101239.38;4972975;28;20035;-71
2021/06/02 04:45:55;;;;;;;5.25;1.98;;;;;;;14.91;83.05;101239.44;4970130;28;20050;-70
2021/06/02 04:48:21;;;;;;;5.20;2.42;;;;;;;14.94;83.14;101241.44;4973584;28;20064;-70
2021/06/02 04:53:56;;;;;;;2.58;1.80;;;;;;;15.10;82.66;101234.66;4925508;29;20050;-73
2021/06/02 04:56:49;;;;;;;3.10;2.05;;;;;;;15.24;82.83;101250.31;4936069;28;20115;-74
2021/06/02 04:59:33;;;;;;;4.90;1.90;;;;;;;15.27;83.58;101244.16;4929366;29;20066;-70
2021/06/02 05:02:15;;;;;;;5.85;2.30;;;;;;;15.30;83.63;101248.81;4929738;29;20035;-73
2021/06/02 05:05:29;;;;;;;5.43;2.33;;;;;;;15.40;83.05;101248.16;4934626;29;20636;-74
2021/06/02 05:08:25;;;;;;;4.30;1.92;;;;;;;15.59;83.30;101258.06;4911335;29;20068;-74
2021/06/02 05:11:20;;;;;;;2.65;1.88;;;;;;;16.13;81.46;101248.06;4931124;29;20051;-73
2021/06/02 05:14:16;;;;;;;2.70;1.75;;;;;;;16.73;80.27;101256.63;4918941;29;20393;-74
2021/06/02 05:17:19;;;;;;;3.72;2.00;;;;;;;17.40;76.18;101259.56;4928995;29;20385;-73
2021/06/02 05:20:05;;;;;;;3.40;1.85;;;;;;;18.04;72.82;101260.44;4927921;29;20046;-75
2021/06/02 05:23:08;;;;;;;2.35;1.80;;;;;;;18.44;71.87;101260.06;4932103;29;20031;-74
2021/06/02 05:25:40;;;;;;;3.40;1.65;;;;;;;18.71;70.27;101265.84;4922670;29;20078;-72
2021/06/02 05:28:14;;;;;;;4.63;1.88;;;;;;;18.95;69.46;101258.72;4924852;29;20381;-72
2021/06/02 05:30:55;;;;;;;4.57;1.60;;;;;;;19.16;68.68;101258.63;4924773;29;20090;-74
2021/06/02 05:33:39;;;;;;;5.28;1.80;;;;;;;19.15;66.70;101268.00;4933480;29;20079;-72
2021/06/02 05:36:04;;;;;;;5.97;1.85;;;;;;;18.96;68.37;101261.06;4919368;29;20040;-73
2021/06/02 05:39:16;;;;;;;4.35;1.80;;;;;;;-144.12;100.00;72078.50;4928533;29;20034;-71
2021/06/02 05:42:11;;;;;;;5.03;2.15;;;;;;;18.86;68.22;101272.78;4921421;29;20054;-72
2021/06/02 05:44:46;;;;;;;4.88;1.60;;;;;;;18.46;70.45;101265.13;4933014;29;20110;-71
2021/06/02 05:47:33;;;;;;;4.05;2.00;;;;;;;18.13;71.64;101279.16;4929719;29;20277;-71
2021/06/02 05:50:35;;;;;;;2.67;1.80;;;;;;;18.20;72.03;101279.13;4931566;29;20039;-71
2021/06/02 05:53:23;;;;;;;4.75;2.00;;;;;;;17.87;72.37;101272.13;4943169;28;20031;-71
2021/06/02 05:56:19;;;;;;;4.95;2.05;;;;;;;17.77;72.94;101276.41;4943003;28;20054;-70
2021/06/02 05:59:00;;;;;;;3.47;1.92;;;;;;;17.97;73.04;101269.41;4946612;29;20086;-71
2021/06/02 06:01:47;;;;;;;4.55;1.83;;;;;;;18.27;72.32;101268.22;4944523;28;20031;-70
2021/06/02 06:04:31;;;;;;;4.90;2.00;;;;;;;18.04;71.79;101277.59;4962325;28;20040;-70
2021/06/02 06:07:33;;;;;;;5.00;2.08;;;;;;;17.67;72.72;101269.00;4949699;29;20043;-70
2021/06/02 06:10:18;;;;;;;2.95;1.85;;;;;;;17.60;73.29;101284.53;4946440;29;20058;-71
2021/06/02 06:13:05;;;;;;;6.10;2.00;;;;;;;17.63;74.05;101272.91;4932616;29;20424;-70
2021/06/02 06:15:30;;;;;;;5.00;2.20;;;;;;;17.64;74.13;101277.94;4944055;29;20039;-70
2021/06/02 06:18:15;;;;;;;4.07;2.03;;;;;;;17.44;73.91;101265.81;4924601;29;20800;-70
2021/06/02 06:20:43;;;;;;;3.22;2.20;;;;;;;17.38;100.00;97155.31;4952616;28;20594;-70
2021/06/02 06:23:31;;;;;;;3.80;2.00;;;;;;;17.37;75.04;101282.13;4949646;28;20132;-70
2021/06/02 06:26:00;;;;;;;4.90;2.30;;;;;;;-144.12;100.00;72078.50;4952144;28;20031;-72
2021/06/02 06:28:42;;;;;;;3.92;2.30;;;;;;;17.41;74.95;101277.47;4945058;29;20078;-71
2021/06/02 06:31:30;;;;;;;3.47;2.08;;;;;;;17.39;75.12;101282.53;4951630;28;20047;-71
2021/06/02 06:33:58;;;;;;;4.63;1.90;;;;;;;17.16;76.91;101273.91;4953251;29;20039;-72
2021/06/02 06:36:25;;;;;;;4.15;2.00;;;;;;;17.22;77.36;101272.38;4952989;29;20024;-71
2021/06/02 06:39:15;;;;;;;9.00;2.10;;;;;;;17.50;77.66;101279.88;4947925;29;20456;-71
2021/06/02 06:41:42;;;;;;;5.53;2.45;;;;;;;17.63;76.56;101279.13;4952088;29;20480;-72
2021/06/02 06:44:11;;;;;;;5.88;1.98;;;;;;;17.50;76.41;101272.47;4954996;29;20039;-71
2021/06/02 06:46:38;;;;;;;3.75;2.20;;;;;;;17.63;76.29;101272.91;4943807;29;20369;-72
2021/06/02 06:49:07;;;;;;;2.95;1.83;;;;;;;17.54;100.00;101284.16;4953538;28;20031;-72
2021/06/02 06:51:34;;;;;;;5.68;2.10;;;;;;;17.81;76.85;101277.19;4952572;28;20051;-72
2021/06/02 06:54:01;;;;;;;3.90;1.85;;;;;;;18.29;75.28;101285.75;4948475;28;20050;-73
2021/06/02 06:56:29;;;;;;;6.97;2.28;;;;;;;18.48;72.74;101279.13;4958833;28;20830;-72
2021/06/02 06:58:57;;;;;;;6.20;2.35;;;;;;;18.48;71.83;101279.13;4951719;29;20126;-73
2021/06/02 07:01:23;;;;;;;4.32;1.90;;;;;;;18.45;71.52;101277.19;4951815;28;20117;-71
2021/06/02 07:03:49;;;;;;;5.57;2.38;;;;;;;18.46;100.00;100771.53;4954221;28;20086;-73
2021/06/02 07:06:16;;;;;;;3.90;2.03;;;;;;;-144.12;54.19;72078.50;4950221;28;20416;-71
2021/06/02 07:08:45;;;;;;;5.53;2.40;;;;;;;18.37;71.25;101290.03;4952159;28;20035;-72
2021/06/02 07:11:13;;;;;;;4.60;2.10;;;;;;;18.24;71.88;101271.72;4949004;28;20027;-72
2021/06/02 07:13:41;;;;;;;4.88;2.20;;;;;;;18.18;72.78;101268.63;4947659;28;20381;-74
2021/06/02 07:16:10;;;;;;;5.90;2.22;;;;;;;18.21;72.84;101276.03;4949823;28;20431;-72
2021/06/02 07:18:36;;;;;;;6.13;2.50;;;;;;;18.40;71.89;101266.66;4950622;29;20384;-73
2021/06/02 07:21:03;;;;;;;3.58;1.92;;;;;;;18.52;72.37;101263.53;4950109;28;20519;-74
2021/06/02 07:23:31;;;;;;;3.15;2.10;;;;;;;18.62;72.18;101265.47;4947654;28;20035;-72
2021/06/02 07:25:58;;;;;;;3.53;2.10;;;;;;;19.00;72.20;101270.00;4965469;28;20043;-72
2021/06/02 07:28:35;;;;;;;2.67;1.75;;;;;;;19.03;69.20;101271.19;4957845;28;20031;-71
2021/06/02 07:31:01;;;;;;;4.80;1.77;;;;;;;19.13;67.38;101270.34;4947849;28;20059;-71
2021/06/02 07:33:26;;;;;;;4.20;2.42;;;;;;;19.48;67.24;101264.72;4952915;28;20042;-72
2021/06/02 07:35:52;;;;;;;4.63;2.03;;;;;;;19.58;66.99;101264.66;4951359;29;20035;-71
2021/06/02 07:38:18;;;;;;;5.65;2.00;;;;;;;20.06;65.29;101274.84;4947873;28;20031;-71
2021/06/02 07:40:43;;;;;;;6.18;1.83;;;;;;;20.28;63.55;101262.56;4952370;28;20090;-72
2021/06/02 07:43:09;;;;;;;3.35;1.80;;;;;;;20.36;62.95;101273.00;4952204;28;20547;-74
2021/06/02 07:45:34;;;;;;;5.78;1.80;;;;;;;20.43;61.67;101270.22;4950126;28;20039;-75
2021/06/02 07:48:00;;;;;;;5.22;1.80;;;;;;;20.48;60.92;101267.03;4948604;28;20400;-72
2021/06/02 07:50:25;;;;;;;7.47;1.80;;;;;;;20.46;61.88;101274.13;4951779;28;20453;-73
2021/06/02 07:52:51;;;;;;;3.25;1.80;;;;;;;20.33;61.68;101271.09;4948254;28;20071;-72
2021/06/02 07:55:18;;;;;;;3.85;1.70;;;;;;;20.41;60.44;101280.00;4946343;28;20031;-72
2021/06/02 07:57:44;;;;;;;4.72;1.83;;;;;;;20.50;61.48;101266.63;4947638;28;20031;-72
2021/06/02 08:00:10;;;;;;;5.65;1.95;;;;;;;20.17;62.15;101264.59;4945374;29;20500;-75
2021/06/02 08:02:59;;;;;;;8.63;1.75;;;;;;;20.44;63.47;101276.47;4949256;28;20039;-71
2021/06/02 08:05:25;;;;;;;5.28;1.73;;;;;;;20.93;63.07;101264.97;4890938;29;20139;-72
2021/06/02 08:07:51;;;;;;;8.02;2.10;;;;;;;21.31;61.11;101262.94;4890595;29;20564;-72
2021/06/02 08:10:18;;;;;;;3.47;1.88;;;;;;;21.51;59.25;101278.31;4869829;29;20048;-72
2021/06/02 08:12:44;;;;;;;3.50;1.83;;;;;;;21.67;58.52;101279.66;4891968;29;20521;-73
2021/06/02 08:15:11;;;;;;;5.20;1.67;;;;;;;21.40;57.41;101271.44;4890830;29;20072;-73
2021/06/02 08:17:38;;;;;;;2.88;1.70;;;;;;;21.66;58.25;101267.13;4890403;29;20045;-73
2021/06/02 08:20:06;;;;;;;4.75;1.70;;;;;;;21.96;58.28;101253.34;4886942;29;20501;-73
2021/06/02 08:22:31;;;;;;;3.63;2.00;;;;;;;22.12;57.08;101281.69;4894316;29;20052;-72
2021/06/02 08:24:57;;;;;;;4.43;2.08;;;;;;;22.25;56.03;101268.13;4885889;29;20552;-73
2021/06/02 08:27:23;;;;;;;7.68;1.70;;;;;;;22.23;53.46;101267.78;4892659;29;20554;-73
2021/06/02 08:29:53;;;;;;;3.65;1.73;;;;;;;22.28;53.83;101259.84;4885517;29;20086;-77
2021/06/02 08:32:19;;;;;;;5.32;1.80;;;;;;;21.92;54.71;101263.59;4892694;29;20099;-74
2021/06/02 08:34:45;;;;;;;8.52;1.70;;;;;;;21.34;55.94;101267.59;4891994;29;20044;-77
2021/06/02 08:37:13;;;;;;;3.80;1.67;;;;;;;21.99;57.25;101258.78;4892764;29;20033;-73
2021/06/02 08:39:39;;;;;;;2.35;1.45;;;;;;;22.34;55.08;101265.63;4887405;29;20038;-74
2021/06/02 08:42:05;;;;;;;3.40;1.85;;;;;;;22.69;54.30;101266.94;4913062;29;20385;-75
2021/06/02 08:44:31;;;;;;;4.93;1.40;;;;;;;23.08;100.00;72078.50;4949861;28;20067;-73
2021/06/02 08:46:58;;;;;;;4.22;1.67;;;;;;;-144.12;100.00;72078.50;4951482;28;20090;-75
2021/06/02 08:49:23;;;;;;;2.50;1.85;;;;;;;-144.12;100.00;72078.50;4944970;28;20019;-73
2021/06/02 08:51:49;;;;;;;2.95;1.60;;;;;;;-144.12;100.00;72078.50;4946169;29;20094;-73
2021/06/02 08:54:14;;;;;;;3.25;1.80;;;;;;;-144.12;100.00;72078.50;4944966;29;20031;-74
2021/06/02 08:56:43;;;;;;;3.10;1.73;;;;;;;-144.12;100.00;72078.50;4948436;28;20039;-74
2021/06/02 08:59:08;;;;;;;5.45;1.70;;;;;;;23.16;52.96;101258.13;4945386;28;20039;-77
2021/06/02 09:01:34;;;;;;;1.73;1.50;;;;;;;22.59;53.29;101257.72;4949260;28;20073;-73
2021/06/02 09:04:08;;;;;;;3.65;1.63;;;;;;;23.12;52.48;101267.63;4946720;28;20062;-74
2021/06/02 09:06:39;;;;;;;6.28;1.95;;;;;;;22.48;52.88;101265.38;4950647;28;20030;-76
2021/06/02 09:09:06;;;;;;;3.53;1.80;;;;;;;22.82;53.87;101268.63;4933981;29;20047;-73
2021/06/02 09:11:40;;;;;;;3.42;1.83;;;;;;;22.91;53.21;101260.63;4949444;28;21038;-73
2021/06/02 09:14:20;;;;;;;2.40;1.70;;;;;;;23.10;52.51;101259.81;4948835;28;20027;-73
2021/06/02 09:16:51;;;;;;;2.38;1.50;;;;;;;22.26;52.64;101250.50;4962085;28;20628;-72
2021/06/02 09:19:34;;;;;;;2.58;1.70;;;;;;;22.88;52.08;101253.22;4949714;28;20046;-73
2021/06/02 09:22:03;;;;;;;2.72;1.60;;;;;;;23.12;51.49;101256.66;4946603;28;20035;-73
2021/06/02 09:24:57;;;;;;;5.03;1.73;;;;;;;22.52;52.62;101257.06;4945237;28;20030;-74
2021/06/02 09:27:48;;;;;;;2.17;1.40;;;;;;;22.66;52.39;101262.31;4945619;28;20090;-74
2021/06/02 09:30:17;;;;;;;4.15;1.55;;;;;;;22.88;51.54;101255.97;4945949;28;20035;-75
2021/06/02 09:32:43;;;;;;;2.67;1.75;;;;;;;22.81;50.90;101256.13;4947751;28;20562;-74
2021/06/02 09:35:12;;;;;;;5.93;1.40;;;;;;;22.64;51.03;101254.50;4946295;28;20058;-75
2021/06/02 09:37:52;;;;;;;3.10;1.75;;;;;;;23.05;50.37;101254.81;4950622;28;20024;-74
2021/06/02 09:40:26;;;;;;;2.40;1.60;;;;;;;22.85;50.29;101270.56;4949385;28;20031;-74
2021/06/02 09:42:52;;;;;;;2.97;1.75;;;;;;;23.17;51.40;101265.16;4946992;28;20043;-74
2021/06/02 09:45:18;;;;;;;2.00;1.42;;;;;;;23.23;50.50;101260.72;4950562;28;20038;-74
2021/06/02 09:47:50;;;;;;;3.45;1.95;;;;;;;22.90;51.19;101250.81;4949091;28;20031;-75
2021/06/02 09:50:25;;;;;;;1.73;1.38;;;;;;;23.34;52.07;101246.78;4949777;28;20333;-75
2021/06/02 09:52:52;;;;;;;3.53;1.50;;;;;;;23.75;50.54;101260.72;4946032;28;20059;-74
2021/06/02 09:55:32;;;;;;;4.47;1.60;;;;;;;23.86;49.19;101254.97;4943780;28;20389;-74
2021/06/02 09:58:01;;;;;;;4.15;1.48;;;;;;;23.59;48.75;101246.19;4948952;28;20432;-74
2021/06/02 10:00:28;;;;;;;4.10;1.63;;;;;;;23.55;50.00;101257.28;4947698;28;20126;-74
2021/06/02 10:02:59;;;;;;;1.83;1.50;;;;;;;23.93;49.90;101250.06;4948980;28;20561;-74
2021/06/02 10:05:37;;;;;;;3.63;1.50;;;;;;;24.35;48.93;101256.47;4945921;28;20492;-74
2021/06/02 10:08:04;;;;;;;2.85;1.60;;;;;;;24.17;47.93;101256.94;4938617;28;20114;-75
2021/06/02 10:10:31;;;;;;;2.45;1.65;;;;;;;24.07;47.48;101258.00;4947812;28;20027;-74
2021/06/02 10:13:01;;;;;;;2.90;1.60;;;;;;;24.24;46.60;101255.97;4954775;28;20604;-74
2021/06/02 10:15:29;;;;;;;5.00;1.55;;;;;;;24.28;47.60;101255.88;4951774;28;20447;-74
2021/06/02 10:17:54;;;;;;;1.73;1.30;;;;;;;24.15;48.02;101256.63;4948768;28;20725;-75
2021/06/02 10:20:20;;;;;;;7.28;1.55;;;;;;;24.23;47.50;101248.94;4955529;28;20031;-73
2021/06/02 10:22:55;;;;;;;5.13;1.80;;;;;;;24.02;48.00;101250.25;4955321;28;20035;-74
2021/06/02 10:25:23;;;;;;;1.73;1.48;;;;;;;24.21;46.88;101247.81;4951105;28;20678;-75
2021/06/02 10:27:54;;;;;;;2.83;1.60;;;;;;;23.80;47.92;101234.66;4950730;28;20038;-75
2021/06/02 10:30:21;;;;;;;3.07;1.50;;;;;;;23.12;50.21;101245.66;4950079;28;20033;-75
2021/06/02 10:32:47;;;;;;;1.95;1.33;;;;;;;23.08;49.54;101258.69;4950432;28;20342;-73
2021/06/02 10:35:13;;;;;;;4.60;1.58;;;;;;;22.92;50.32;101247.63;4953384;28;20031;-73
2021/06/02 10:37:41;;;;;;;4.65;1.80;;;;;;;23.07;49.77;101246.16;4958718;28;20041;-74
2021/06/02 10:40:10;;;;;;;1.95;1.60;;;;;;;22.75;50.39;101246.81;4966523;28;20082;-75
2021/06/02 10:43:11;;;;;;;4.22;1.60;;;;;;;23.18;49.93;101233.75;4948900;28;20019;-76
2021/06/02 10:46:07;;;;;;;2.10;1.27;;;;;;;23.40;50.31;101238.78;4910188;28;20041;-75
2021/06/02 10:48:53;;;;;;;2.65;1.83;;;;;;;23.76;48.79;101234.75;4942257;28;20047;-75
2021/06/02 10:51:27;;;;;;;3.13;1.75;;;;;;;23.98;49.04;101232.25;4968072;23;20035;-73
2021/06/02 10:54:28;;;;;;;2.42;1.70;;;;;;;24.22;50.16;101232.81;4962738;28;20058;-73
2021/06/02 10:56:56;;;;;;;3.53;1.70;;;;;;;23.85;47.22;101226.66;4967169;28;20038;-74
2021/06/02 10:59:32;;;;;;;3.28;1.70;;;;;;;24.36;47.44;101238.75;4969607;28;20129;-73
2021/06/02 11:02:08;;;;;;;3.25;1.77;;;;;;;24.85;46.35;101233.88;4961862;28;20610;-73
2021/06/02 11:04:36;;;;;;;3.08;1.70;;;;;;;24.83;48.41;101223.28;4972765;28;20053;-73
2021/06/02 11:07:22;;;;;;;5.05;1.75;;;;;;;25.11;48.44;101229.91;4971115;28;20050;-73
2021/06/02 11:09:51;;;;;;;4.45;2.15;;;;;;;25.45;47.15;101234.81;4975991;28;20090;-73
2021/06/02 11:12:17;;;;;;;2.75;2.00;;;;;;;24.98;45.40;101229.91;4959873;28;20539;-73
2021/06/02 11:14:43;;;;;;;1.80;1.60;;;;;;;25.29;46.21;101232.13;4961278;28;20106;-73
2021/06/02 11:17:10;;;;;;;2.92;1.42;;;;;;;25.48;46.23;101231.16;4955493;28;20025;-73
2021/06/02 11:19:42;;;;;;;4.47;1.75;;;;;;;25.32;46.92;101231.28;4961512;28;20031;-73
2021/06/02 11:22:09;;;;;;;2.58;1.67;;;;;;;25.13;46.77;101221.19;4962723;28;20045;-73
2021/06/02 11:24:37;;;;;;;3.60;1.80;;;;;;;25.17;47.30;101227.38;4962850;28;20022;-73
2021/06/02 11:29:46;;;;;;;3.00;1.63;;;;;;;25.43;46.21;101215.19;4972132;28;20041;-73
2021/06/02 11:32:20;;;;;;;5.60;1.40;;;;;;;25.25;46.96;101223.19;4963244;28;20037;-73
2021/06/02 11:34:47;;;;;;;1.80;1.33;;;;;;;25.62;46.64;101227.97;4972183;28;20683;-73
2021/06/02 11:37:19;;;;;;;12.70;1.98;;;;;;;25.78;46.79;101214.78;4980578;28;20038;-73
2021/06/02 11:39:47;;;;;;;3.78;1.90;;;;;;;26.29;45.23;101223.72;4968507;28;20027;-73
2021/06/02 11:42:35;;;;;;;6.70;2.30;;;;;;;26.38;45.07;101215.50;4968165;28;20019;-73
2021/06/02 11:45:02;;;;;;;4.38;1.90;;;;;;;25.93;46.06;101221.38;4958602;28;20049;-73
2021/06/02 11:47:28;;;;;;;4.45;2.15;;;;;;;25.31;46.85;101218.69;4963385;28;20121;-73
2021/06/02 11:50:13;;;;;;;3.03;2.28;;;;;;;24.53;47.51;101228.44;4963220;28;20079;-72
2021/06/02 11:52:39;;;;;;;3.90;2.28;;;;;;;23.87;48.65;101227.00;4960780;28;20045;-72
2021/06/02 11:55:09;;;;;;;2.65;2.35;;;;;;;24.20;48.57;101227.75;4963435;28;20555;-72
2021/06/02 11:57:37;;;;;;;3.53;2.40;;;;;;;24.56;47.97;101222.84;4985049;28;20092;-72
2021/06/02 12:00:12;;;;;;;3.72;2.15;;;;;;;25.00;47.16;101210.94;4965576;28;20043;-73
2021/06/02 12:02:39;;;;;;;4.05;2.42;;;;;;;25.46;47.18;101211.53;4969882;28;20116;-72
2021/06/02 12:05:20;;;;;;;3.70;2.35;;;;;;;25.21;47.88;101214.25;4967297;28;20030;-72